Freeland, Pennsylvania
Current Conditions -  °F | °C
As of 6:55 AM on Monday 24 Nov 2014 (Local Time) from KHZL Reporting Station
Overcast Overcast  
Wind Chill: 59°   Ceiling: 900
Heat Index: 59°   Visibility: 10mi
Dew Point: 57°   Wind: 14mph
Humidity: 94%   Direction: 180°S
Pressure: 29.64"   Gusts: 25mph
Location:  41.02°N, 75.9°W
Report Text: KHZL 241155Z AUTO 18012G22KT 150V220 10SM OVC009 15/14 A2964 RMK AO2 P0006
Loading
Personal Weather Stations






























Interactive Weather Map New forecast layout! Learn more

10-Day Weather Forecast

Advertisements
Track Severe Weather on mobile